Voorschoten, Netherlands
Current Conditions -  °F | °C
As of 9:25 AM on Monday 26 Jan 2015 (Local Time) from EHRD Reporting Station
Overcast Overcast  
Wind Chill: 41°   Ceiling: 600
Heat Index: 46°   Visibility: 5mi
Dew Point: 45°   Wind: 12mph
Humidity: 93%   Direction: 240°WSW
Pressure: 30.09"   Gusts: NA
Location:  52.13°N, 4.45°E
Report Text: EHRD 260825Z AUTO 24010KT 8000 FEW005 OVC006 08/07 Q1019 REDZTEMPO 5000 DZ
Loading
Personal Weather Stations






























Interactive Weather Map New forecast layout! Learn more

10-Day Weather Forecast

Advertisements
Track Severe Weather on mobile